Hiltons, Virginia
Current Conditions -  °F | °C
As of 9:53 AM on Wednesday 22 Oct 2014 (Local Time) from KTRI Reporting Station
Broken Clouds Broken Clouds  
Wind Chill: 45°   Ceiling: 4200
Heat Index: 48°   Visibility: 10mi
Dew Point: 38°   Wind: 7mph
Humidity: 68%   Direction: 350°N
Pressure: 30.19"   Gusts: NA
Location:  36.65°N, 82.47°W
Report Text: KTRI 221353Z 35006KT 10SM FEW025 BKN042 09/03 A3019 RMK AO2 SLP215 T00890033
Loading
Personal Weather Stations






























Interactive Weather Map
Tropical Storm Tracking
New forecast layout! Learn more

10-Day Weather Forecast

Advertisements
Track Severe Weather on mobile